sensor_id;sensor_type;location;lat;lon;timestamp;P1;durP1;ratioP1;P2;durP2;ratioP2
74401;SDS011;62837;51.082;13.744;2024-03-08T00:01:47;27.80;;;11.60;;
74401;SDS011;62837;51.082;13.744;2024-03-08T00:04:18;25.20;;;10.70;;
74401;SDS011;62837;51.082;13.744;2024-03-08T00:06:49;28.30;;;11.90;;
74401;SDS011;62837;51.082;13.744;2024-03-08T00:09:20;28.10;;;11.20;;
74401;SDS011;62837;51.082;13.744;2024-03-08T00:11:51;26.90;;;12.70;;
74401;SDS011;62837;51.082;13.744;2024-03-08T00:14:22;24.40;;;10.80;;
74401;SDS011;62837;51.082;13.744;2024-03-08T00:16:53;25.20;;;10.80;;
74401;SDS011;62837;51.082;13.744;2024-03-08T00:19:24;27.90;;;11.20;;
74401;SDS011;62837;51.082;13.744;2024-03-08T00:21:55;27.90;;;12.50;;
74401;SDS011;62837;51.082;13.744;2024-03-08T00:24:25;30.00;;;11.60;;
74401;SDS011;62837;51.082;13.744;2024-03-08T00:26:56;27.60;;;11.30;;
74401;SDS011;62837;51.082;13.744;2024-03-08T00:29:27;36.30;;;14.50;;
74401;SDS011;62837;51.082;13.744;2024-03-08T00:31:58;35.20;;;13.00;;
74401;SDS011;62837;51.082;13.744;2024-03-08T00:34:29;31.00;;;11.30;;
74401;SDS011;62837;51.082;13.744;2024-03-08T00:37:00;25.10;;;9.70;;
74401;SDS011;62837;51.082;13.744;2024-03-08T00:39:31;28.30;;;12.40;;
74401;SDS011;62837;51.082;13.744;2024-03-08T00:42:02;27.00;;;10.90;;
74401;SDS011;62837;51.082;13.744;2024-03-08T00:44:33;30.40;;;12.90;;
74401;SDS011;62837;51.082;13.744;2024-03-08T00:47:04;28.40;;;12.00;;
74401;SDS011;62837;51.082;13.744;2024-03-08T00:49:35;25.80;;;10.80;;
74401;SDS011;62837;51.082;13.744;2024-03-08T00:52:06;28.40;;;12.80;;
74401;SDS011;62837;51.082;13.744;2024-03-08T00:54:37;26.30;;;11.20;;
74401;SDS011;62837;51.082;13.744;2024-03-08T00:57:08;31.10;;;12.20;;
74401;SDS011;62837;51.082;13.744;2024-03-08T00:59:39;26.20;;;11.30;;
74401;SDS011;62837;51.082;13.744;2024-03-08T01:02:10;27.20;;;11.60;;
74401;SDS011;62837;51.082;13.744;2024-03-08T01:04:41;24.60;;;10.90;;
74401;SDS011;62837;51.082;13.744;2024-03-08T01:07:12;23.30;;;10.10;;
74401;SDS011;62837;51.082;13.744;2024-03-08T01:09:43;21.10;;;8.20;;
74401;SDS011;62837;51.082;13.744;2024-03-08T01:12:14;27.50;;;11.40;;
74401;SDS011;62837;51.082;13.744;2024-03-08T01:14:44;27.10;;;10.70;;
74401;SDS011;62837;51.082;13.744;2024-03-08T01:17:15;27.20;;;11.10;;
74401;SDS011;62837;51.082;13.744;2024-03-08T01:19:46;24.40;;;9.50;;
74401;SDS011;62837;51.082;13.744;2024-03-08T01:22:17;23.80;;;8.70;;
74401;SDS011;62837;51.082;13.744;2024-03-08T01:24:48;20.10;;;7.90;;
74401;SDS011;62837;51.082;13.744;2024-03-08T01:27:18;27.80;;;11.90;;
74401;SDS011;62837;51.082;13.744;2024-03-08T01:29:49;24.20;;;11.10;;
74401;SDS011;62837;51.082;13.744;2024-03-08T01:32:20;24.10;;;10.70;;
74401;SDS011;62837;51.082;13.744;2024-03-08T01:34:51;20.70;;;8.50;;
74401;SDS011;62837;51.082;13.744;2024-03-08T01:37:22;27.40;;;12.30;;
74401;SDS011;62837;51.082;13.744;2024-03-08T01:39:53;27.70;;;11.50;;
74401;SDS011;62837;51.082;13.744;2024-03-08T01:42:24;24.60;;;11.50;;
74401;SDS011;62837;51.082;13.744;2024-03-08T01:44:55;25.50;;;10.80;;
74401;SDS011;62837;51.082;13.744;2024-03-08T01:47:26;27.60;;;11.40;;
74401;SDS011;62837;51.082;13.744;2024-03-08T01:49:57;26.40;;;12.20;;
74401;SDS011;62837;51.082;13.744;2024-03-08T01:52:29;25.60;;;11.00;;
74401;SDS011;62837;51.082;13.744;2024-03-08T01:55:01;23.70;;;10.90;;
74401;SDS011;62837;51.082;13.744;2024-03-08T01:57:35;29.90;;;11.70;;
74401;SDS011;62837;51.082;13.744;2024-03-08T02:00:07;28.80;;;12.70;;
74401;SDS011;62837;51.082;13.744;2024-03-08T02:02:39;28.70;;;11.40;;
74401;SDS011;62837;51.082;13.744;2024-03-08T02:05:15;23.50;;;10.70;;
74401;SDS011;62837;51.082;13.744;2024-03-08T02:07:45;29.10;;;12.40;;
74401;SDS011;62837;51.082;13.744;2024-03-08T02:10:16;36.40;;;14.10;;
74401;SDS011;62837;51.082;13.744;2024-03-08T02:12:47;29.10;;;12.00;;
74401;SDS011;62837;51.082;13.744;2024-03-08T02:15:19;23.40;;;10.60;;
74401;SDS011;62837;51.082;13.744;2024-03-08T02:17:50;27.00;;;12.50;;
74401;SDS011;62837;51.082;13.744;2024-03-08T02:20:22;24.40;;;10.80;;
74401;SDS011;62837;51.082;13.744;2024-03-08T02:22:53;26.00;;;11.70;;
74401;SDS011;62837;51.082;13.744;2024-03-08T02:25:23;25.90;;;10.80;;
74401;SDS011;62837;51.082;13.744;2024-03-08T02:27:54;30.70;;;11.70;;
74401;SDS011;62837;51.082;13.744;2024-03-08T02:30:25;25.40;;;11.00;;
74401;SDS011;62837;51.082;13.744;2024-03-08T02:32:57;28.50;;;12.20;;
74401;SDS011;62837;51.082;13.744;2024-03-08T02:35:28;24.20;;;10.10;;
74401;SDS011;62837;51.082;13.744;2024-03-08T02:37:59;21.60;;;9.80;;
74401;SDS011;62837;51.082;13.744;2024-03-08T02:40:31;22.70;;;9.60;;
74401;SDS011;62837;51.082;13.744;2024-03-08T02:43:02;18.60;;;7.50;;
74401;SDS011;62837;51.082;13.744;2024-03-08T02:45:33;28.40;;;11.30;;
74401;SDS011;62837;51.082;13.744;2024-03-08T02:48:04;22.60;;;9.40;;
74401;SDS011;62837;51.082;13.744;2024-03-08T02:50:36;25.50;;;11.00;;
74401;SDS011;62837;51.082;13.744;2024-03-08T02:53:08;23.50;;;10.60;;
74401;SDS011;62837;51.082;13.744;2024-03-08T02:55:39;27.00;;;10.90;;
74401;SDS011;62837;51.082;13.744;2024-03-08T02:58:10;27.50;;;11.00;;
74401;SDS011;62837;51.082;13.744;2024-03-08T03:00:42;23.40;;;9.60;;
74401;SDS011;62837;51.082;13.744;2024-03-08T03:03:13;20.60;;;8.70;;
74401;SDS011;62837;51.082;13.744;2024-03-08T03:05:44;23.50;;;10.20;;
74401;SDS011;62837;51.082;13.744;2024-03-08T03:08:16;26.00;;;11.70;;
74401;SDS011;62837;51.082;13.744;2024-03-08T03:10:47;22.90;;;9.40;;
74401;SDS011;62837;51.082;13.744;2024-03-08T03:13:18;25.50;;;11.00;;
74401;SDS011;62837;51.082;13.744;2024-03-08T03:15:49;31.60;;;12.10;;
74401;SDS011;62837;51.082;13.744;2024-03-08T03:18:20;27.90;;;10.90;;
74401;SDS011;62837;51.082;13.744;2024-03-08T03:20:51;26.00;;;11.30;;
74401;SDS011;62837;51.082;13.744;2024-03-08T03:23:22;26.30;;;11.10;;
74401;SDS011;62837;51.082;13.744;2024-03-08T03:25:54;27.70;;;12.50;;
74401;SDS011;62837;51.082;13.744;2024-03-08T03:28:25;26.60;;;12.00;;
74401;SDS011;62837;51.082;13.744;2024-03-08T03:30:56;26.90;;;11.10;;
74401;SDS011;62837;51.082;13.744;2024-03-08T03:33:27;27.20;;;10.80;;
74401;SDS011;62837;51.082;13.744;2024-03-08T03:35:58;24.10;;;10.00;;
74401;SDS011;62837;51.082;13.744;2024-03-08T03:38:29;25.50;;;10.80;;
74401;SDS011;62837;51.082;13.744;2024-03-08T03:40:59;29.60;;;12.60;;
74401;SDS011;62837;51.082;13.744;2024-03-08T03:43:37;27.20;;;12.20;;
74401;SDS011;62837;51.082;13.744;2024-03-08T03:46:08;25.60;;;11.10;;
74401;SDS011;62837;51.082;13.744;2024-03-08T03:48:39;28.40;;;11.90;;
74401;SDS011;62837;51.082;13.744;2024-03-08T03:51:10;31.60;;;13.30;;
74401;SDS011;62837;51.082;13.744;2024-03-08T03:53:43;30.00;;;12.70;;
74401;SDS011;62837;51.082;13.744;2024-03-08T03:56:14;28.70;;;11.70;;
74401;SDS011;62837;51.082;13.744;2024-03-08T03:58:45;26.70;;;10.40;;
74401;SDS011;62837;51.082;13.744;2024-03-08T04:01:17;28.10;;;11.20;;
74401;SDS011;62837;51.082;13.744;2024-03-08T04:03:48;29.60;;;12.30;;
74401;SDS011;62837;51.082;13.744;2024-03-08T04:06:19;25.40;;;11.10;;
74401;SDS011;62837;51.082;13.744;2024-03-08T04:08:50;29.60;;;12.80;;
74401;SDS011;62837;51.082;13.744;2024-03-08T04:11:21;26.20;;;11.80;;
74401;SDS011;62837;51.082;13.744;2024-03-08T04:13:52;27.10;;;12.10;;
74401;SDS011;62837;51.082;13.744;2024-03-08T04:16:22;27.10;;;10.80;;
74401;SDS011;62837;51.082;13.744;2024-03-08T04:18:53;31.40;;;12.00;;
74401;SDS011;62837;51.082;13.744;2024-03-08T04:21:24;28.60;;;11.80;;
74401;SDS011;62837;51.082;13.744;2024-03-08T04:23:55;33.30;;;14.10;;
74401;SDS011;62837;51.082;13.744;2024-03-08T04:26:26;26.20;;;11.00;;
74401;SDS011;62837;51.082;13.744;2024-03-08T04:28:57;24.80;;;10.20;;
74401;SDS011;62837;51.082;13.744;2024-03-08T04:31:29;28.90;;;12.60;;
74401;SDS011;62837;51.082;13.744;2024-03-08T04:33:59;26.10;;;11.70;;
74401;SDS011;62837;51.082;13.744;2024-03-08T04:36:33;32.30;;;12.00;;
74401;SDS011;62837;51.082;13.744;2024-03-08T04:39:03;31.70;;;12.50;;
74401;SDS011;62837;51.082;13.744;2024-03-08T04:41:37;25.80;;;11.80;;
74401;SDS011;62837;51.082;13.744;2024-03-08T04:44:08;28.40;;;11.40;;
74401;SDS011;62837;51.082;13.744;2024-03-08T04:46:40;25.30;;;9.40;;
74401;SDS011;62837;51.082;13.744;2024-03-08T04:49:11;37.70;;;13.60;;
74401;SDS011;62837;51.082;13.744;2024-03-08T04:51:42;34.00;;;13.70;;
74401;SDS011;62837;51.082;13.744;2024-03-08T04:54:13;30.10;;;12.70;;
74401;SDS011;62837;51.082;13.744;2024-03-08T04:56:44;30.70;;;13.20;;
74401;SDS011;62837;51.082;13.744;2024-03-08T04:59:15;28.50;;;11.30;;
74401;SDS011;62837;51.082;13.744;2024-03-08T05:01:47;27.80;;;11.10;;
74401;SDS011;62837;51.082;13.744;2024-03-08T05:04:17;29.60;;;11.20;;
74401;SDS011;62837;51.082;13.744;2024-03-08T05:06:48;25.50;;;10.70;;
74401;SDS011;62837;51.082;13.744;2024-03-08T05:09:18;29.30;;;10.70;;
74401;SDS011;62837;51.082;13.744;2024-03-08T05:11:50;29.60;;;12.50;;
74401;SDS011;62837;51.082;13.744;2024-03-08T05:14:20;32.10;;;12.60;;
74401;SDS011;62837;51.082;13.744;2024-03-08T05:16:52;29.90;;;11.60;;
74401;SDS011;62837;51.082;13.744;2024-03-08T05:19:23;30.50;;;12.30;;
74401;SDS011;62837;51.082;13.744;2024-03-08T05:21:56;33.20;;;13.20;;
74401;SDS011;62837;51.082;13.744;2024-03-08T05:24:27;30.10;;;12.10;;
74401;SDS011;62837;51.082;13.744;2024-03-08T05:26:58;23.60;;;9.60;;
74401;SDS011;62837;51.082;13.744;2024-03-08T05:29:30;24.40;;;11.00;;
74401;SDS011;62837;51.082;13.744;2024-03-08T05:32:01;36.20;;;12.40;;
74401;SDS011;62837;51.082;13.744;2024-03-08T05:34:32;33.30;;;13.90;;
74401;SDS011;62837;51.082;13.744;2024-03-08T05:37:02;30.10;;;11.90;;
74401;SDS011;62837;51.082;13.744;2024-03-08T05:39:34;34.60;;;14.00;;
74401;SDS011;62837;51.082;13.744;2024-03-08T05:42:05;24.80;;;10.80;;
74401;SDS011;62837;51.082;13.744;2024-03-08T05:44:37;31.70;;;14.30;;
74401;SDS011;62837;51.082;13.744;2024-03-08T05:47:08;32.20;;;13.60;;
74401;SDS011;62837;51.082;13.744;2024-03-08T05:49:39;34.10;;;12.50;;
74401;SDS011;62837;51.082;13.744;2024-03-08T05:52:09;27.00;;;10.50;;
74401;SDS011;62837;51.082;13.744;2024-03-08T05:54:40;32.10;;;13.00;;
74401;SDS011;62837;51.082;13.744;2024-03-08T05:57:11;32.60;;;12.60;;
74401;SDS011;62837;51.082;13.744;2024-03-08T05:59:42;29.60;;;12.80;;
74401;SDS011;62837;51.082;13.744;2024-03-08T06:02:13;27.10;;;10.10;;
74401;SDS011;62837;51.082;13.744;2024-03-08T06:04:47;16.80;;;7.20;;
74401;SDS011;62837;51.082;13.744;2024-03-08T06:07:17;16.70;;;6.60;;
74401;SDS011;62837;51.082;13.744;2024-03-08T06:09:48;30.90;;;11.60;;
74401;SDS011;62837;51.082;13.744;2024-03-08T06:12:18;35.50;;;14.90;;
74401;SDS011;62837;51.082;13.744;2024-03-08T06:14:50;34.90;;;15.90;;
74401;SDS011;62837;51.082;13.744;2024-03-08T06:17:20;35.30;;;16.50;;
74401;SDS011;62837;51.082;13.744;2024-03-08T06:19:53;35.50;;;16.30;;
74401;SDS011;62837;51.082;13.744;2024-03-08T06:22:24;37.20;;;15.50;;
74401;SDS011;62837;51.082;13.744;2024-03-08T06:24:54;38.80;;;14.10;;
74401;SDS011;62837;51.082;13.744;2024-03-08T06:27:25;33.60;;;15.00;;
74401;SDS011;62837;51.082;13.744;2024-03-08T06:29:56;36.70;;;15.50;;
74401;SDS011;62837;51.082;13.744;2024-03-08T06:32:26;39.00;;;15.90;;
74401;SDS011;62837;51.082;13.744;2024-03-08T06:34:57;38.30;;;16.10;;
74401;SDS011;62837;51.082;13.744;2024-03-08T06:37:28;32.80;;;14.10;;
74401;SDS011;62837;51.082;13.744;2024-03-08T06:39:59;35.70;;;14.50;;
74401;SDS011;62837;51.082;13.744;2024-03-08T06:42:31;33.90;;;15.10;;
74401;SDS011;62837;51.082;13.744;2024-03-08T06:45:03;40.60;;;15.70;;
74401;SDS011;62837;51.082;13.744;2024-03-08T06:47:37;34.50;;;15.70;;
74401;SDS011;62837;51.082;13.744;2024-03-08T06:50:10;38.00;;;15.80;;
74401;SDS011;62837;51.082;13.744;2024-03-08T06:52:41;31.00;;;13.70;;
74401;SDS011;62837;51.082;13.744;2024-03-08T06:55:14;35.50;;;14.70;;
74401;SDS011;62837;51.082;13.744;2024-03-08T06:57:45;35.00;;;12.80;;
74401;SDS011;62837;51.082;13.744;2024-03-08T07:00:16;38.30;;;16.20;;
74401;SDS011;62837;51.082;13.744;2024-03-08T07:02:48;33.30;;;15.50;;
74401;SDS011;62837;51.082;13.744;2024-03-08T07:05:21;30.00;;;13.90;;
74401;SDS011;62837;51.082;13.744;2024-03-08T07:07:57;27.40;;;11.40;;
74401;SDS011;62837;51.082;13.744;2024-03-08T07:10:28;29.50;;;13.50;;
74401;SDS011;62837;51.082;13.744;2024-03-08T07:12:58;33.30;;;13.40;;
74401;SDS011;62837;51.082;13.744;2024-03-08T07:15:30;31.60;;;13.90;;
74401;SDS011;62837;51.082;13.744;2024-03-08T07:18:00;35.70;;;14.70;;
74401;SDS011;62837;51.082;13.744;2024-03-08T07:20:31;30.90;;;14.20;;
74401;SDS011;62837;51.082;13.744;2024-03-08T07:23:03;30.60;;;14.00;;
74401;SDS011;62837;51.082;13.744;2024-03-08T07:25:34;31.30;;;14.10;;
74401;SDS011;62837;51.082;13.744;2024-03-08T07:28:07;32.90;;;14.20;;
74401;SDS011;62837;51.082;13.744;2024-03-08T07:30:40;33.10;;;14.20;;
74401;SDS011;62837;51.082;13.744;2024-03-08T07:33:35;32.50;;;14.30;;
74401;SDS011;62837;51.082;13.744;2024-03-08T07:36:07;31.40;;;14.00;;
74401;SDS011;62837;51.082;13.744;2024-03-08T07:38:38;33.00;;;15.30;;
74401;SDS011;62837;51.082;13.744;2024-03-08T07:41:09;29.30;;;14.10;;
74401;SDS011;62837;51.082;13.744;2024-03-08T07:43:42;29.50;;;14.20;;
74401;SDS011;62837;51.082;13.744;2024-03-08T07:46:13;28.20;;;12.90;;
74401;SDS011;62837;51.082;13.744;2024-03-08T07:48:46;29.20;;;13.70;;
74401;SDS011;62837;51.082;13.744;2024-03-08T07:51:17;27.20;;;13.80;;
74401;SDS011;62837;51.082;13.744;2024-03-08T07:53:48;29.50;;;14.40;;
74401;SDS011;62837;51.082;13.744;2024-03-08T07:56:19;31.00;;;14.20;;
74401;SDS011;62837;51.082;13.744;2024-03-08T07:58:49;28.10;;;13.90;;
74401;SDS011;62837;51.082;13.744;2024-03-08T08:01:21;30.80;;;14.80;;
74401;SDS011;62837;51.082;13.744;2024-03-08T08:03:51;31.50;;;15.80;;
74401;SDS011;62837;51.082;13.744;2024-03-08T08:06:22;32.20;;;14.90;;
74401;SDS011;62837;51.082;13.744;2024-03-08T08:08:53;28.80;;;13.50;;
74401;SDS011;62837;51.082;13.744;2024-03-08T08:11:25;38.60;;;16.40;;
74401;SDS011;62837;51.082;13.744;2024-03-08T08:13:56;31.20;;;15.40;;
74401;SDS011;62837;51.082;13.744;2024-03-08T08:16:28;32.90;;;15.80;;
74401;SDS011;62837;51.082;13.744;2024-03-08T08:18:59;30.30;;;14.90;;
74401;SDS011;62837;51.082;13.744;2024-03-08T08:21:31;33.90;;;15.10;;
74401;SDS011;62837;51.082;13.744;2024-03-08T08:24:02;34.00;;;14.60;;
74401;SDS011;62837;51.082;13.744;2024-03-08T08:26:34;29.20;;;15.40;;
74401;SDS011;62837;51.082;13.744;2024-03-08T08:29:07;27.70;;;13.40;;
74401;SDS011;62837;51.082;13.744;2024-03-08T08:31:38;32.20;;;14.50;;
74401;SDS011;62837;51.082;13.744;2024-03-08T08:34:10;26.90;;;13.80;;
74401;SDS011;62837;51.082;13.744;2024-03-08T08:36:41;30.30;;;14.50;;
74401;SDS011;62837;51.082;13.744;2024-03-08T08:39:12;26.20;;;13.50;;
74401;SDS011;62837;51.082;13.744;2024-03-08T08:41:45;30.90;;;13.80;;
74401;SDS011;62837;51.082;13.744;2024-03-08T08:44:15;28.00;;;13.80;;
74401;SDS011;62837;51.082;13.744;2024-03-08T08:46:46;26.30;;;13.20;;
74401;SDS011;62837;51.082;13.744;2024-03-08T08:49:22;25.90;;;12.30;;
74401;SDS011;62837;51.082;13.744;2024-03-08T08:51:53;27.60;;;14.60;;
74401;SDS011;62837;51.082;13.744;2024-03-08T08:54:36;24.20;;;13.40;;
74401;SDS011;62837;51.082;13.744;2024-03-08T08:57:06;30.70;;;14.30;;
74401;SDS011;62837;51.082;13.744;2024-03-08T08:59:37;26.70;;;13.30;;
74401;SDS011;62837;51.082;13.744;2024-03-08T09:02:08;24.40;;;12.30;;
74401;SDS011;62837;51.082;13.744;2024-03-08T09:04:43;26.20;;;12.20;;
74401;SDS011;62837;51.082;13.744;2024-03-08T09:07:15;26.80;;;13.10;;
74401;SDS011;62837;51.082;13.744;2024-03-08T09:09:47;26.30;;;13.10;;
74401;SDS011;62837;51.082;13.744;2024-03-08T09:12:17;27.40;;;12.00;;
74401;SDS011;62837;51.082;13.744;2024-03-08T09:14:48;25.80;;;12.70;;
74401;SDS011;62837;51.082;13.744;2024-03-08T09:17:19;25.20;;;13.90;;
74401;SDS011;62837;51.082;13.744;2024-03-08T09:19:49;23.50;;;12.30;;
74401;SDS011;62837;51.082;13.744;2024-03-08T09:22:22;26.30;;;12.10;;
74401;SDS011;62837;51.082;13.744;2024-03-08T09:24:53;24.20;;;12.20;;
74401;SDS011;62837;51.082;13.744;2024-03-08T09:27:25;21.90;;;10.90;;
74401;SDS011;62837;51.082;13.744;2024-03-08T09:29:55;25.30;;;12.70;;
74401;SDS011;62837;51.082;13.744;2024-03-08T09:32:26;22.50;;;10.70;;
74401;SDS011;62837;51.082;13.744;2024-03-08T09:34:57;22.80;;;11.70;;
74401;SDS011;62837;51.082;13.744;2024-03-08T09:37:29;23.20;;;12.10;;
74401;SDS011;62837;51.082;13.744;2024-03-08T09:40:00;21.70;;;11.20;;
74401;SDS011;62837;51.082;13.744;2024-03-08T09:42:32;25.50;;;12.20;;
74401;SDS011;62837;51.082;13.744;2024-03-08T09:45:06;24.20;;;12.00;;
74401;SDS011;62837;51.082;13.744;2024-03-08T09:47:40;24.30;;;12.10;;
74401;SDS011;62837;51.082;13.744;2024-03-08T09:50:11;23.70;;;11.60;;
74401;SDS011;62837;51.082;13.744;2024-03-08T09:52:42;19.40;;;10.10;;
74401;SDS011;62837;51.082;13.744;2024-03-08T09:55:15;20.00;;;10.60;;
74401;SDS011;62837;51.082;13.744;2024-03-08T09:57:50;22.40;;;10.60;;
74401;SDS011;62837;51.082;13.744;2024-03-08T10:00:36;23.20;;;11.50;;
74401;SDS011;62837;51.082;13.744;2024-03-08T10:03:07;21.80;;;10.90;;
74401;SDS011;62837;51.082;13.744;2024-03-08T10:05:42;21.20;;;10.80;;
74401;SDS011;62837;51.082;13.744;2024-03-08T10:08:13;20.20;;;10.50;;
74401;SDS011;62837;51.082;13.744;2024-03-08T10:10:43;19.50;;;9.70;;
74401;SDS011;62837;51.082;13.744;2024-03-08T10:13:14;19.10;;;9.10;;
74401;SDS011;62837;51.082;13.744;2024-03-08T10:15:47;20.20;;;10.20;;
74401;SDS011;62837;51.082;13.744;2024-03-08T10:18:19;20.60;;;10.40;;
74401;SDS011;62837;51.082;13.744;2024-03-08T10:21:02;22.40;;;10.60;;
74401;SDS011;62837;51.082;13.744;2024-03-08T10:23:35;20.30;;;9.60;;
74401;SDS011;62837;51.082;13.744;2024-03-08T10:26:12;19.70;;;9.70;;
74401;SDS011;62837;51.082;13.744;2024-03-08T10:28:44;16.60;;;8.40;;
74401;SDS011;62837;51.082;13.744;2024-03-08T10:31:16;19.50;;;10.70;;
74401;SDS011;62837;51.082;13.744;2024-03-08T10:33:48;18.60;;;9.50;;
74401;SDS011;62837;51.082;13.744;2024-03-08T10:36:19;18.60;;;10.10;;
74401;SDS011;62837;51.082;13.744;2024-03-08T10:38:50;21.40;;;11.20;;
74401;SDS011;62837;51.082;13.744;2024-03-08T10:41:21;24.10;;;12.10;;
74401;SDS011;62837;51.082;13.744;2024-03-08T10:44:10;23.30;;;12.00;;
74401;SDS011;62837;51.082;13.744;2024-03-08T10:46:50;23.20;;;10.20;;
74401;SDS011;62837;51.082;13.744;2024-03-08T10:49:31;23.90;;;12.50;;
74401;SDS011;62837;51.082;13.744;2024-03-08T10:52:07;23.60;;;11.60;;
74401;SDS011;62837;51.082;13.744;2024-03-08T10:54:41;21.90;;;11.50;;
74401;SDS011;62837;51.082;13.744;2024-03-08T10:57:13;24.50;;;12.60;;
74401;SDS011;62837;51.082;13.744;2024-03-08T10:59:47;22.90;;;11.10;;
74401;SDS011;62837;51.082;13.744;2024-03-08T11:02:19;20.50;;;10.60;;
74401;SDS011;62837;51.082;13.744;2024-03-08T11:04:50;22.00;;;10.60;;
74401;SDS011;62837;51.082;13.744;2024-03-08T11:07:24;22.40;;;10.20;;
74401;SDS011;62837;51.082;13.744;2024-03-08T11:09:57;21.30;;;10.70;;
74401;SDS011;62837;51.082;13.744;2024-03-08T11:12:28;22.40;;;11.70;;
74401;SDS011;62837;51.082;13.744;2024-03-08T11:15:09;21.70;;;10.10;;
74401;SDS011;62837;51.082;13.744;2024-03-08T11:17:44;23.00;;;10.50;;
74401;SDS011;62837;51.082;13.744;2024-03-08T11:20:19;22.80;;;10.80;;
74401;SDS011;62837;51.082;13.744;2024-03-08T11:22:53;20.00;;;10.00;;
74401;SDS011;62837;51.082;13.744;2024-03-08T11:25:32;20.90;;;10.00;;
74401;SDS011;62837;51.082;13.744;2024-03-08T11:28:14;21.50;;;10.00;;
74401;SDS011;62837;51.082;13.744;2024-03-08T11:31:21;20.40;;;10.90;;
74401;SDS011;62837;51.082;13.744;2024-03-08T11:33:54;22.60;;;10.70;;
74401;SDS011;62837;51.082;13.744;2024-03-08T11:36:27;18.60;;;9.20;;
74401;SDS011;62837;51.082;13.744;2024-03-08T11:38:59;19.10;;;10.10;;
74401;SDS011;62837;51.082;13.744;2024-03-08T11:41:37;17.00;;;8.50;;
74401;SDS011;62837;51.082;13.744;2024-03-08T11:44:09;19.80;;;10.00;;
74401;SDS011;62837;51.082;13.744;2024-03-08T11:46:43;19.40;;;10.00;;
74401;SDS011;62837;51.082;13.744;2024-03-08T11:49:15;17.70;;;8.20;;
74401;SDS011;62837;51.082;13.744;2024-03-08T11:51:46;15.40;;;7.90;;
74401;SDS011;62837;51.082;13.744;2024-03-08T11:54:23;18.50;;;9.20;;
74401;SDS011;62837;51.082;13.744;2024-03-08T11:56:54;19.10;;;8.80;;
74401;SDS011;62837;51.082;13.744;2024-03-08T11:59:28;17.80;;;9.30;;
74401;SDS011;62837;51.082;13.744;2024-03-08T12:02:01;17.30;;;8.90;;
74401;SDS011;62837;51.082;13.744;2024-03-08T12:04:36;20.30;;;9.90;;
74401;SDS011;62837;51.082;13.744;2024-03-08T12:07:16;17.80;;;8.60;;
74401;SDS011;62837;51.082;13.744;2024-03-08T12:12:47;16.50;;;7.50;;
74401;SDS011;62837;51.082;13.744;2024-03-08T12:15:20;18.20;;;8.70;;
74401;SDS011;62837;51.082;13.744;2024-03-08T12:17:52;14.00;;;6.00;;
74401;SDS011;62837;51.082;13.744;2024-03-08T12:20:25;15.80;;;7.00;;
74401;SDS011;62837;51.082;13.744;2024-03-08T12:22:57;16.60;;;6.80;;
74401;SDS011;62837;51.082;13.744;2024-03-08T12:25:29;15.70;;;7.20;;
74401;SDS011;62837;51.082;13.744;2024-03-08T12:28:10;17.30;;;7.50;;
74401;SDS011;62837;51.082;13.744;2024-03-08T12:30:47;14.90;;;6.90;;
74401;SDS011;62837;51.082;13.744;2024-03-08T12:33:20;16.90;;;8.20;;
74401;SDS011;62837;51.082;13.744;2024-03-08T12:35:52;18.20;;;7.70;;
74401;SDS011;62837;51.082;13.744;2024-03-08T12:38:28;16.20;;;7.30;;
74401;SDS011;62837;51.082;13.744;2024-03-08T12:41:00;17.10;;;7.60;;
74401;SDS011;62837;51.082;13.744;2024-03-08T12:43:31;15.90;;;7.00;;
74401;SDS011;62837;51.082;13.744;2024-03-08T12:46:02;17.00;;;7.70;;
74401;SDS011;62837;51.082;13.744;2024-03-08T12:48:35;17.70;;;8.10;;
74401;SDS011;62837;51.082;13.744;2024-03-08T12:51:08;16.30;;;6.60;;
74401;SDS011;62837;51.082;13.744;2024-03-08T12:53:39;13.90;;;6.70;;
74401;SDS011;62837;51.082;13.744;2024-03-08T12:56:12;16.90;;;7.60;;
74401;SDS011;62837;51.082;13.744;2024-03-08T12:58:45;16.00;;;7.30;;
74401;SDS011;62837;51.082;13.744;2024-03-08T13:01:16;15.20;;;6.90;;
74401;SDS011;62837;51.082;13.744;2024-03-08T13:03:47;15.90;;;6.90;;
74401;SDS011;62837;51.082;13.744;2024-03-08T13:06:18;15.40;;;7.00;;
74401;SDS011;62837;51.082;13.744;2024-03-08T13:08:52;14.30;;;7.30;;
74401;SDS011;62837;51.082;13.744;2024-03-08T13:11:23;15.50;;;6.80;;
74401;SDS011;62837;51.082;13.744;2024-03-08T13:13:55;15.10;;;7.50;;
74401;SDS011;62837;51.082;13.744;2024-03-08T13:16:27;16.30;;;7.70;;
74401;SDS011;62837;51.082;13.744;2024-03-08T13:18:58;14.20;;;6.80;;
74401;SDS011;62837;51.082;13.744;2024-03-08T13:21:29;16.10;;;8.40;;
74401;SDS011;62837;51.082;13.744;2024-03-08T13:24:00;17.90;;;8.20;;
74401;SDS011;62837;51.082;13.744;2024-03-08T13:26:31;13.10;;;6.00;;
74401;SDS011;62837;51.082;13.744;2024-03-08T13:29:02;15.60;;;7.90;;
74401;SDS011;62837;51.082;13.744;2024-03-08T13:31:34;17.40;;;7.90;;
74401;SDS011;62837;51.082;13.744;2024-03-08T13:34:05;12.70;;;5.60;;
74401;SDS011;62837;51.082;13.744;2024-03-08T13:36:37;13.60;;;6.80;;
74401;SDS011;62837;51.082;13.744;2024-03-08T13:39:12;14.00;;;6.00;;
74401;SDS011;62837;51.082;13.744;2024-03-08T13:41:44;14.20;;;6.40;;
74401;SDS011;62837;51.082;13.744;2024-03-08T13:44:14;14.40;;;6.30;;
74401;SDS011;62837;51.082;13.744;2024-03-08T13:46:46;12.90;;;6.10;;
74401;SDS011;62837;51.082;13.744;2024-03-08T13:49:21;12.90;;;4.90;;
74401;SDS011;62837;51.082;13.744;2024-03-08T13:51:54;12.90;;;6.40;;
74401;SDS011;62837;51.082;13.744;2024-03-08T13:54:26;14.40;;;6.40;;
74401;SDS011;62837;51.082;13.744;2024-03-08T13:56:59;15.70;;;6.20;;
74401;SDS011;62837;51.082;13.744;2024-03-08T13:59:31;12.30;;;5.50;;
74401;SDS011;62837;51.082;13.744;2024-03-08T14:02:03;11.10;;;4.70;;
74401;SDS011;62837;51.082;13.744;2024-03-08T14:04:34;13.00;;;5.60;;
74401;SDS011;62837;51.082;13.744;2024-03-08T14:07:06;13.50;;;6.30;;
74401;SDS011;62837;51.082;13.744;2024-03-08T14:09:36;12.00;;;5.70;;
74401;SDS011;62837;51.082;13.744;2024-03-08T14:12:10;12.30;;;6.20;;
74401;SDS011;62837;51.082;13.744;2024-03-08T14:14:42;14.20;;;5.70;;
74401;SDS011;62837;51.082;13.744;2024-03-08T14:17:12;13.20;;;5.80;;
74401;SDS011;62837;51.082;13.744;2024-03-08T14:19:45;16.00;;;7.40;;
74401;SDS011;62837;51.082;13.744;2024-03-08T14:24:48;12.50;;;5.70;;
74401;SDS011;62837;51.082;13.744;2024-03-08T14:27:19;11.90;;;5.30;;
74401;SDS011;62837;51.082;13.744;2024-03-08T14:29:50;11.50;;;4.80;;
74401;SDS011;62837;51.082;13.744;2024-03-08T14:32:22;14.00;;;6.00;;
74401;SDS011;62837;51.082;13.744;2024-03-08T14:34:53;11.40;;;4.80;;
74401;SDS011;62837;51.082;13.744;2024-03-08T14:37:24;11.10;;;4.50;;
74401;SDS011;62837;51.082;13.744;2024-03-08T14:39:57;9.80;;;4.20;;
74401;SDS011;62837;51.082;13.744;2024-03-08T14:42:28;11.20;;;5.20;;
74401;SDS011;62837;51.082;13.744;2024-03-08T14:44:58;7.90;;;3.20;;
74401;SDS011;62837;51.082;13.744;2024-03-08T14:47:29;12.10;;;4.90;;